sensor_id;sensor_type;location;lat;lon;timestamp;P1;durP1;ratioP1;P2;durP2;ratioP2
22515;SDS011;11424;48.860;9.624;2023-11-21T00:02:54;52.7;;;56.5;;
22515;SDS011;11424;48.860;9.624;2023-11-21T00:07:54;53.6;;;57.9;;
22515;SDS011;11424;48.860;9.624;2023-11-21T00:12:54;59.9;;;66.2;;
22515;SDS011;11424;48.860;9.624;2023-11-21T00:17:54;57.2;;;63;;
22515;SDS011;11424;48.860;9.624;2023-11-21T00:22:54;58.9;;;65;;
22515;SDS011;11424;48.860;9.624;2023-11-21T00:27:54;60.9;;;67.5;;
22515;SDS011;11424;48.860;9.624;2023-11-21T00:32:54;60.9;;;67.5;;
22515;SDS011;11424;48.860;9.624;2023-11-21T00:37:54;58.5;;;64.5;;
22515;SDS011;11424;48.860;9.624;2023-11-21T00:42:54;59.3;;;64.9;;
22515;SDS011;11424;48.860;9.624;2023-11-21T00:47:54;54.4;;;58.4;;
22515;SDS011;11424;48.860;9.624;2023-11-21T00:52:54;60;;;66.3;;
22515;SDS011;11424;48.860;9.624;2023-11-21T00:57:54;59.1;;;65.6;;
22515;SDS011;11424;48.860;9.624;2023-11-21T01:02:54;58.1;;;64.1;;
22515;SDS011;11424;48.860;9.624;2023-11-21T01:07:54;59.6;;;66;;
22515;SDS011;11424;48.860;9.624;2023-11-21T01:12:54;56.6;;;62.3;;
22515;SDS011;11424;48.860;9.624;2023-11-21T01:17:54;58.8;;;65.2;;
22515;SDS011;11424;48.860;9.624;2023-11-21T01:22:54;58.1;;;64;;
22515;SDS011;11424;48.860;9.624;2023-11-21T01:27:55;52.8;;;56.7;;
22515;SDS011;11424;48.860;9.624;2023-11-21T01:32:54;57.8;;;63.8;;
22515;SDS011;11424;48.860;9.624;2023-11-21T01:37:54;55.8;;;61.3;;
22515;SDS011;11424;48.860;9.624;2023-11-21T01:42:54;59.1;;;65.4;;
22515;SDS011;11424;48.860;9.624;2023-11-21T01:47:54;55.5;;;61;;
22515;SDS011;11424;48.860;9.624;2023-11-21T01:52:54;56.7;;;62.5;;
22515;SDS011;11424;48.860;9.624;2023-11-21T01:57:55;56.6;;;62.3;;
22515;SDS011;11424;48.860;9.624;2023-11-21T02:02:54;61.1;;;67.8;;
22515;SDS011;11424;48.860;9.624;2023-11-21T02:07:54;58.3;;;64.2;;
22515;SDS011;11424;48.860;9.624;2023-11-21T02:12:54;52.4;;;56.5;;
22515;SDS011;11424;48.860;9.624;2023-11-21T02:17:54;51.6;;;55.5;;
22515;SDS011;11424;48.860;9.624;2023-11-21T02:22:55;53.2;;;57.2;;
22515;SDS011;11424;48.860;9.624;2023-11-21T02:27:55;52.3;;;56.3;;
22515;SDS011;11424;48.860;9.624;2023-11-21T02:32:55;57.5;;;63.2;;
22515;SDS011;11424;48.860;9.624;2023-11-21T02:37:55;59.3;;;65.4;;
22515;SDS011;11424;48.860;9.624;2023-11-21T02:42:54;59.4;;;65.5;;
22515;SDS011;11424;48.860;9.624;2023-11-21T02:47:54;55.3;;;60.7;;
22515;SDS011;11424;48.860;9.624;2023-11-21T02:52:55;57.2;;;62.8;;
22515;SDS011;11424;48.860;9.624;2023-11-21T02:57:54;51.8;;;55.5;;
22515;SDS011;11424;48.860;9.624;2023-11-21T03:02:55;51.9;;;55.7;;
22515;SDS011;11424;48.860;9.624;2023-11-21T03:07:54;50.6;;;54.2;;
22515;SDS011;11424;48.860;9.624;2023-11-21T03:12:54;55.8;;;61.3;;
22515;SDS011;11424;48.860;9.624;2023-11-21T03:17:55;55.9;;;61.3;;
22515;SDS011;11424;48.860;9.624;2023-11-21T03:22:55;55.2;;;60.5;;
22515;SDS011;11424;48.860;9.624;2023-11-21T03:27:55;55.2;;;60.6;;
22515;SDS011;11424;48.860;9.624;2023-11-21T03:32:55;54.2;;;59.3;;
22515;SDS011;11424;48.860;9.624;2023-11-21T03:37:55;56.6;;;62.2;;
22515;SDS011;11424;48.860;9.624;2023-11-21T03:42:55;51.6;;;55.2;;
22515;SDS011;11424;48.860;9.624;2023-11-21T03:47:55;49.9;;;53.3;;
22515;SDS011;11424;48.860;9.624;2023-11-21T03:52:55;58.5;;;64.5;;
22515;SDS011;11424;48.860;9.624;2023-11-21T03:57:55;58.9;;;64.9;;
22515;SDS011;11424;48.860;9.624;2023-11-21T04:02:55;59.1;;;65.2;;
22515;SDS011;11424;48.860;9.624;2023-11-21T04:07:55;56.3;;;62;;
22515;SDS011;11424;48.860;9.624;2023-11-21T04:12:55;58.3;;;64.4;;
22515;SDS011;11424;48.860;9.624;2023-11-21T04:17:55;57.9;;;63.8;;
22515;SDS011;11424;48.860;9.624;2023-11-21T04:22:55;56.5;;;61.6;;
22515;SDS011;11424;48.860;9.624;2023-11-21T04:27:55;53.8;;;57.7;;
22515;SDS011;11424;48.860;9.624;2023-11-21T04:32:55;55.5;;;61;;
22515;SDS011;11424;48.860;9.624;2023-11-21T04:37:55;56.5;;;62.2;;
22515;SDS011;11424;48.860;9.624;2023-11-21T04:42:55;55.1;;;60.6;;
22515;SDS011;11424;48.860;9.624;2023-11-21T04:47:55;55.7;;;61.3;;
22515;SDS011;11424;48.860;9.624;2023-11-21T04:52:55;55.7;;;61.2;;
22515;SDS011;11424;48.860;9.624;2023-11-21T04:57:55;55.9;;;61.4;;
22515;SDS011;11424;48.860;9.624;2023-11-21T05:02:55;57.1;;;62.9;;
22515;SDS011;11424;48.860;9.624;2023-11-21T05:07:55;53.7;;;57.6;;
22515;SDS011;11424;48.860;9.624;2023-11-21T05:12:55;56.9;;;62.7;;
22515;SDS011;11424;48.860;9.624;2023-11-21T05:17:55;57.3;;;63.1;;
22515;SDS011;11424;48.860;9.624;2023-11-21T05:22:55;59.9;;;66.1;;
22515;SDS011;11424;48.860;9.624;2023-11-21T05:27:55;61.3;;;67.8;;
22515;SDS011;11424;48.860;9.624;2023-11-21T05:32:55;59.6;;;65.8;;
22515;SDS011;11424;48.860;9.624;2023-11-21T05:37:55;60.2;;;66.3;;
22515;SDS011;11424;48.860;9.624;2023-11-21T05:42:55;63.9;;;71.2;;
22515;SDS011;11424;48.860;9.624;2023-11-21T05:47:55;62.8;;;69.3;;
22515;SDS011;11424;48.860;9.624;2023-11-21T05:52:55;55.5;;;60.1;;
22515;SDS011;11424;48.860;9.624;2023-11-21T05:57:55;53.5;;;57.6;;
22515;SDS011;11424;48.860;9.624;2023-11-21T06:02:55;55;;;59.4;;
22515;SDS011;11424;48.860;9.624;2023-11-21T06:07:55;55.4;;;60;;
22515;SDS011;11424;48.860;9.624;2023-11-21T06:12:55;63.8;;;70.9;;
22515;SDS011;11424;48.860;9.624;2023-11-21T06:17:55;62.2;;;68.8;;
22515;SDS011;11424;48.860;9.624;2023-11-21T06:22:55;66.1;;;73.4;;
22515;SDS011;11424;48.860;9.624;2023-11-21T06:27:55;59.9;;;65.6;;
22515;SDS011;11424;48.860;9.624;2023-11-21T06:32:55;58.9;;;64.6;;
22515;SDS011;11424;48.860;9.624;2023-11-21T06:37:55;55.1;;;59.7;;
22515;SDS011;11424;48.860;9.624;2023-11-21T06:42:55;54.5;;;58.9;;
22515;SDS011;11424;48.860;9.624;2023-11-21T06:47:55;55.5;;;59.9;;
22515;SDS011;11424;48.860;9.624;2023-11-21T06:52:55;58.6;;;64;;
22515;SDS011;11424;48.860;9.624;2023-11-21T06:57:55;60.8;;;66.6;;
22515;SDS011;11424;48.860;9.624;2023-11-21T07:02:55;58.9;;;64.4;;
22515;SDS011;11424;48.860;9.624;2023-11-21T07:07:55;59;;;64.9;;
22515;SDS011;11424;48.860;9.624;2023-11-21T07:12:55;59.5;;;65.5;;
22515;SDS011;11424;48.860;9.624;2023-11-21T07:17:55;60.6;;;66.4;;
22515;SDS011;11424;48.860;9.624;2023-11-21T07:22:55;54.3;;;58.4;;
22515;SDS011;11424;48.860;9.624;2023-11-21T07:27:55;54.1;;;58.1;;
22515;SDS011;11424;48.860;9.624;2023-11-21T07:32:55;61.8;;;68.2;;
22515;SDS011;11424;48.860;9.624;2023-11-21T07:37:55;59.6;;;65.6;;
22515;SDS011;11424;48.860;9.624;2023-11-21T07:42:55;58.2;;;63.6;;
22515;SDS011;11424;48.860;9.624;2023-11-21T07:47:55;59.6;;;65.6;;
22515;SDS011;11424;48.860;9.624;2023-11-21T07:52:55;67.8;;;73.6;;
22515;SDS011;11424;48.860;9.624;2023-11-21T07:57:55;60.9;;;66.8;;
22515;SDS011;11424;48.860;9.624;2023-11-21T08:02:55;57.2;;;62.4;;
22515;SDS011;11424;48.860;9.624;2023-11-21T08:07:55;54.1;;;58.5;;
22515;SDS011;11424;48.860;9.624;2023-11-21T08:12:55;58.7;;;64.4;;
22515;SDS011;11424;48.860;9.624;2023-11-21T08:17:55;52.3;;;56.8;;
22515;SDS011;11424;48.860;9.624;2023-11-21T08:22:55;56.2;;;61.5;;
22515;SDS011;11424;48.860;9.624;2023-11-21T08:27:55;57.1;;;62.6;;
22515;SDS011;11424;48.860;9.624;2023-11-21T08:32:55;57.3;;;62.9;;
22515;SDS011;11424;48.860;9.624;2023-11-21T08:37:55;54.4;;;59.7;;
22515;SDS011;11424;48.860;9.624;2023-11-21T08:42:55;55.7;;;61;;
22515;SDS011;11424;48.860;9.624;2023-11-21T08:47:55;49.5;;;52.9;;
22515;SDS011;11424;48.860;9.624;2023-11-21T08:52:55;58.2;;;63.9;;
22515;SDS011;11424;48.860;9.624;2023-11-21T08:57:55;54.5;;;59.5;;
22515;SDS011;11424;48.860;9.624;2023-11-21T09:02:55;57.2;;;63;;
22515;SDS011;11424;48.860;9.624;2023-11-21T09:07:55;52.8;;;57.8;;
22515;SDS011;11424;48.860;9.624;2023-11-21T09:12:55;55;;;60.4;;
22515;SDS011;11424;48.860;9.624;2023-11-21T09:17:55;57.6;;;63.4;;
22515;SDS011;11424;48.860;9.624;2023-11-21T09:22:55;55;;;60.2;;
22515;SDS011;11424;48.860;9.624;2023-11-21T09:27:55;56.7;;;62.2;;
22515;SDS011;11424;48.860;9.624;2023-11-21T09:32:55;52;;;55.8;;
22515;SDS011;11424;48.860;9.624;2023-11-21T09:37:55;50.8;;;54.4;;
22515;SDS011;11424;48.860;9.624;2023-11-21T09:42:55;51.9;;;55.6;;
22515;SDS011;11424;48.860;9.624;2023-11-21T09:47:55;52.3;;;56;;
22515;SDS011;11424;48.860;9.624;2023-11-21T09:52:57;52.8;;;57.7;;
22515;SDS011;11424;48.860;9.624;2023-11-21T09:57:56;54.9;;;60.2;;
22515;SDS011;11424;48.860;9.624;2023-11-21T10:02:55;52.2;;;57.1;;
22515;SDS011;11424;48.860;9.624;2023-11-21T10:07:55;54.3;;;59.6;;
22515;SDS011;11424;48.860;9.624;2023-11-21T10:12:56;49.9;;;54.3;;
22515;SDS011;11424;48.860;9.624;2023-11-21T10:17:55;51.7;;;55.4;;
22515;SDS011;11424;48.860;9.624;2023-11-21T10:22:55;54.7;;;58.5;;
22515;SDS011;11424;48.860;9.624;2023-11-21T10:27:57;54.8;;;58.4;;
22515;SDS011;11424;48.860;9.624;2023-11-21T10:32:58;54.5;;;59.8;;
22515;SDS011;11424;48.860;9.624;2023-11-21T10:37:59;54.8;;;60.3;;
22515;SDS011;11424;48.860;9.624;2023-11-21T10:42:55;53.6;;;58.8;;
22515;SDS011;11424;48.860;9.624;2023-11-21T10:47:55;55.2;;;60.8;;
22515;SDS011;11424;48.860;9.624;2023-11-21T10:52:55;52.7;;;57.6;;
22515;SDS011;11424;48.860;9.624;2023-11-21T10:57:55;54.9;;;60.4;;
22515;SDS011;11424;48.860;9.624;2023-11-21T11:02:55;51.8;;;54.9;;
22515;SDS011;11424;48.860;9.624;2023-11-21T11:07:57;48.7;;;51.9;;
22515;SDS011;11424;48.860;9.624;2023-11-21T11:12:55;51.8;;;56.6;;
22515;SDS011;11424;48.860;9.624;2023-11-21T11:17:55;53.9;;;59.3;;
22515;SDS011;11424;48.860;9.624;2023-11-21T11:22:59;53.9;;;58.9;;
22515;SDS011;11424;48.860;9.624;2023-11-21T11:27:57;50.7;;;55.2;;
22515;SDS011;11424;48.860;9.624;2023-11-21T11:33:04;54.3;;;59.6;;
22515;SDS011;11424;48.860;9.624;2023-11-21T11:37:55;55.3;;;60.8;;
22515;SDS011;11424;48.860;9.624;2023-11-21T11:42:56;55.5;;;60.1;;
22515;SDS011;11424;48.860;9.624;2023-11-21T11:47:56;52;;;55.4;;
22515;SDS011;11424;48.860;9.624;2023-11-21T11:52:55;53;;;57.9;;
22515;SDS011;11424;48.860;9.624;2023-11-21T11:57:55;52.2;;;57.2;;
22515;SDS011;11424;48.860;9.624;2023-11-21T12:02:56;55.4;;;61.1;;
22515;SDS011;11424;48.860;9.624;2023-11-21T12:07:56;52.8;;;57.9;;
22515;SDS011;11424;48.860;9.624;2023-11-21T12:12:56;50.3;;;54.9;;
22515;SDS011;11424;48.860;9.624;2023-11-21T12:17:55;54.2;;;59.6;;
22515;SDS011;11424;48.860;9.624;2023-11-21T12:22:55;52.7;;;57.7;;
22515;SDS011;11424;48.860;9.624;2023-11-21T12:27:55;48.7;;;51.6;;
22515;SDS011;11424;48.860;9.624;2023-11-21T12:32:55;50.8;;;55.5;;
22515;SDS011;11424;48.860;9.624;2023-11-21T12:37:55;52.9;;;58;;
22515;SDS011;11424;48.860;9.624;2023-11-21T12:42:56;51;;;55.6;;
22515;SDS011;11424;48.860;9.624;2023-11-21T12:47:56;50.4;;;54.9;;
22515;SDS011;11424;48.860;9.624;2023-11-21T12:52:58;52.3;;;57;;
22515;SDS011;11424;48.860;9.624;2023-11-21T12:57:55;52.2;;;56.9;;
22515;SDS011;11424;48.860;9.624;2023-11-21T13:02:56;52.1;;;56.9;;
22515;SDS011;11424;48.860;9.624;2023-11-21T13:07:56;51.7;;;56.4;;
22515;SDS011;11424;48.860;9.624;2023-11-21T13:12:56;52.7;;;57.4;;
22515;SDS011;11424;48.860;9.624;2023-11-21T13:17:55;50.5;;;54.9;;
22515;SDS011;11424;48.860;9.624;2023-11-21T13:22:56;50.9;;;55.4;;
22515;SDS011;11424;48.860;9.624;2023-11-21T13:27:55;52;;;56.8;;
22515;SDS011;11424;48.860;9.624;2023-11-21T13:32:55;52;;;56.6;;
22515;SDS011;11424;48.860;9.624;2023-11-21T13:37:55;51.9;;;56.6;;
22515;SDS011;11424;48.860;9.624;2023-11-21T13:42:55;53.5;;;58.6;;
22515;SDS011;11424;48.860;9.624;2023-11-21T13:47:55;53.2;;;58.3;;
22515;SDS011;11424;48.860;9.624;2023-11-21T13:52:55;57.4;;;63;;
22515;SDS011;11424;48.860;9.624;2023-11-21T13:57:55;54.8;;;58.7;;
22515;SDS011;11424;48.860;9.624;2023-11-21T14:02:55;54.3;;;57.9;;
22515;SDS011;11424;48.860;9.624;2023-11-21T14:07:55;52.5;;;56.2;;
22515;SDS011;11424;48.860;9.624;2023-11-21T14:12:55;74.5;;;80.2;;
22515;SDS011;11424;48.860;9.624;2023-11-21T14:17:55;54.8;;;59.8;;
22515;SDS011;11424;48.860;9.624;2023-11-21T14:22:55;57.1;;;62.6;;
22515;SDS011;11424;48.860;9.624;2023-11-21T14:27:55;55.5;;;60.6;;
22515;SDS011;11424;48.860;9.624;2023-11-21T14:32:55;56.1;;;61.4;;
22515;SDS011;11424;48.860;9.624;2023-11-21T14:37:55;58.2;;;63.5;;
22515;SDS011;11424;48.860;9.624;2023-11-21T14:42:55;59.3;;;64.2;;
22515;SDS011;11424;48.860;9.624;2023-11-21T14:47:55;56.9;;;61.5;;
22515;SDS011;11424;48.860;9.624;2023-11-21T14:52:55;57.6;;;63.2;;
22515;SDS011;11424;48.860;9.624;2023-11-21T14:57:55;58.7;;;64.4;;
22515;SDS011;11424;48.860;9.624;2023-11-21T15:02:55;58.2;;;64;;
22515;SDS011;11424;48.860;9.624;2023-11-21T15:07:55;58.6;;;64.2;;
22515;SDS011;11424;48.860;9.624;2023-11-21T15:12:55;63.4;;;69.8;;
22515;SDS011;11424;48.860;9.624;2023-11-21T15:17:55;58.4;;;64;;
22515;SDS011;11424;48.860;9.624;2023-11-21T15:22:55;55.1;;;59.8;;
22515;SDS011;11424;48.860;9.624;2023-11-21T15:27:55;53.1;;;57;;
22515;SDS011;11424;48.860;9.624;2023-11-21T15:32:55;59.2;;;65.1;;
22515;SDS011;11424;48.860;9.624;2023-11-21T15:37:55;58.4;;;64.1;;
22515;SDS011;11424;48.860;9.624;2023-11-21T15:42:55;58.3;;;64;;
22515;SDS011;11424;48.860;9.624;2023-11-21T15:47:55;58.9;;;64.7;;
22515;SDS011;11424;48.860;9.624;2023-11-21T15:52:55;54.8;;;59.9;;
22515;SDS011;11424;48.860;9.624;2023-11-21T15:57:55;66.5;;;73.6;;
22515;SDS011;11424;48.860;9.624;2023-11-21T16:02:55;62.6;;;69.2;;
22515;SDS011;11424;48.860;9.624;2023-11-21T16:07:55;54.2;;;58.7;;
22515;SDS011;11424;48.860;9.624;2023-11-21T16:12:55;60.9;;;67;;
22515;SDS011;11424;48.860;9.624;2023-11-21T16:17:55;61.4;;;67.5;;
22515;SDS011;11424;48.860;9.624;2023-11-21T16:22:55;62.9;;;69.5;;
22515;SDS011;11424;48.860;9.624;2023-11-21T16:27:55;65.8;;;72.8;;
22515;SDS011;11424;48.860;9.624;2023-11-21T16:32:55;63.3;;;69.8;;
22515;SDS011;11424;48.860;9.624;2023-11-21T16:37:55;63.5;;;70;;
22515;SDS011;11424;48.860;9.624;2023-11-21T16:42:55;58.8;;;64.7;;
22515;SDS011;11424;48.860;9.624;2023-11-21T16:47:55;62.6;;;68.9;;
22515;SDS011;11424;48.860;9.624;2023-11-21T16:52:55;67.1;;;74.2;;
22515;SDS011;11424;48.860;9.624;2023-11-21T16:57:55;63.7;;;70.4;;
22515;SDS011;11424;48.860;9.624;2023-11-21T17:02:55;65.5;;;72.2;;
22515;SDS011;11424;48.860;9.624;2023-11-21T17:07:55;63.4;;;69.9;;
22515;SDS011;11424;48.860;9.624;2023-11-21T17:12:55;80.3;;;89.4;;
22515;SDS011;11424;48.860;9.624;2023-11-21T17:17:55;63.8;;;70.2;;
22515;SDS011;11424;48.860;9.624;2023-11-21T17:22:55;69.9;;;77.6;;
22515;SDS011;11424;48.860;9.624;2023-11-21T17:27:55;64.4;;;71;;
22515;SDS011;11424;48.860;9.624;2023-11-21T17:32:55;62.9;;;69.1;;
22515;SDS011;11424;48.860;9.624;2023-11-21T17:37:55;55.8;;;60.9;;
22515;SDS011;11424;48.860;9.624;2023-11-21T17:42:56;57.3;;;62.6;;
22515;SDS011;11424;48.860;9.624;2023-11-21T17:47:55;55.9;;;60.8;;
22515;SDS011;11424;48.860;9.624;2023-11-21T17:52:56;59.5;;;65.3;;
22515;SDS011;11424;48.860;9.624;2023-11-21T17:57:56;66.9;;;73.9;;
22515;SDS011;11424;48.860;9.624;2023-11-21T18:02:55;70.3;;;78.1;;
22515;SDS011;11424;48.860;9.624;2023-11-21T18:07:56;62.6;;;68.8;;
22515;SDS011;11424;48.860;9.624;2023-11-21T18:12:56;68.4;;;75.9;;
22515;SDS011;11424;48.860;9.624;2023-11-21T18:17:55;63.8;;;70.4;;
22515;SDS011;11424;48.860;9.624;2023-11-21T18:22:56;58.8;;;64.1;;
22515;SDS011;11424;48.860;9.624;2023-11-21T18:27:56;57.3;;;62.5;;
22515;SDS011;11424;48.860;9.624;2023-11-21T18:32:56;56.2;;;61.1;;
22515;SDS011;11424;48.860;9.624;2023-11-21T18:37:56;62.3;;;68.6;;
22515;SDS011;11424;48.860;9.624;2023-11-21T18:42:56;64.5;;;71.3;;
22515;SDS011;11424;48.860;9.624;2023-11-21T18:47:56;66;;;73.2;;
22515;SDS011;11424;48.860;9.624;2023-11-21T18:52:56;68.7;;;76.3;;
22515;SDS011;11424;48.860;9.624;2023-11-21T18:57:56;63.6;;;70.3;;
22515;SDS011;11424;48.860;9.624;2023-11-21T19:02:56;58.5;;;64.1;;
22515;SDS011;11424;48.860;9.624;2023-11-21T19:07:57;53.6;;;58.2;;
22515;SDS011;11424;48.860;9.624;2023-11-21T19:12:56;55.7;;;60.3;;
22515;SDS011;11424;48.860;9.624;2023-11-21T19:17:56;63.5;;;70.1;;
22515;SDS011;11424;48.860;9.624;2023-11-21T19:22:56;67;;;74;;
22515;SDS011;11424;48.860;9.624;2023-11-21T19:27:56;68.4;;;75.9;;
22515;SDS011;11424;48.860;9.624;2023-11-21T19:32:56;66.1;;;73.3;;
22515;SDS011;11424;48.860;9.624;2023-11-21T19:37:56;64.1;;;70.9;;
22515;SDS011;11424;48.860;9.624;2023-11-21T19:42:56;69.5;;;77.5;;
22515;SDS011;11424;48.860;9.624;2023-11-21T19:47:56;55.6;;;60.2;;
22515;SDS011;11424;48.860;9.624;2023-11-21T19:52:56;56.2;;;60.7;;
22515;SDS011;11424;48.860;9.624;2023-11-21T19:57:56;72.2;;;80.7;;
22515;SDS011;11424;48.860;9.624;2023-11-21T20:02:56;64.5;;;71.1;;
22515;SDS011;11424;48.860;9.624;2023-11-21T20:07:56;66.5;;;73.8;;
22515;SDS011;11424;48.860;9.624;2023-11-21T20:12:56;61.4;;;67.5;;
22515;SDS011;11424;48.860;9.624;2023-11-21T20:17:56;64.6;;;71.4;;
22515;SDS011;11424;48.860;9.624;2023-11-21T20:22:56;66;;;73.3;;
22515;SDS011;11424;48.860;9.624;2023-11-21T20:27:56;68.5;;;76.1;;
22515;SDS011;11424;48.860;9.624;2023-11-21T20:32:56;60.1;;;65.3;;
22515;SDS011;11424;48.860;9.624;2023-11-21T20:37:56;71.2;;;79.4;;
22515;SDS011;11424;48.860;9.624;2023-11-21T20:42:56;72.6;;;80.6;;
22515;SDS011;11424;48.860;9.624;2023-11-21T20:47:56;61.7;;;67.9;;
22515;SDS011;11424;48.860;9.624;2023-11-21T20:52:56;67.3;;;74.9;;
22515;SDS011;11424;48.860;9.624;2023-11-21T20:57:56;68.1;;;75.8;;
22515;SDS011;11424;48.860;9.624;2023-11-21T21:02:56;66.4;;;73.3;;
22515;SDS011;11424;48.860;9.624;2023-11-21T21:07:56;67.3;;;74.5;;
22515;SDS011;11424;48.860;9.624;2023-11-21T21:12:56;67.8;;;75.3;;
22515;SDS011;11424;48.860;9.624;2023-11-21T21:17:56;62.9;;;68.7;;
22515;SDS011;11424;48.860;9.624;2023-11-21T21:22:56;56;;;60.7;;
22515;SDS011;11424;48.860;9.624;2023-11-21T21:27:56;60.9;;;66.6;;
22515;SDS011;11424;48.860;9.624;2023-11-21T21:32:56;59.8;;;65.1;;
22515;SDS011;11424;48.860;9.624;2023-11-21T21:37:56;69.1;;;76.9;;
22515;SDS011;11424;48.860;9.624;2023-11-21T21:42:56;67.7;;;75.3;;
22515;SDS011;11424;48.860;9.624;2023-11-21T21:47:56;69;;;76.6;;
22515;SDS011;11424;48.860;9.624;2023-11-21T21:52:56;67.7;;;74.9;;
22515;SDS011;11424;48.860;9.624;2023-11-21T21:57:56;71.2;;;79.2;;
22515;SDS011;11424;48.860;9.624;2023-11-21T22:02:56;55.4;;;59.9;;
22515;SDS011;11424;48.860;9.624;2023-11-21T22:07:56;56.3;;;61.2;;
22515;SDS011;11424;48.860;9.624;2023-11-21T22:12:56;52.6;;;56.9;;
22515;SDS011;11424;48.860;9.624;2023-11-21T22:17:56;62;;;68.3;;
22515;SDS011;11424;48.860;9.624;2023-11-21T22:22:56;62.2;;;68.6;;
22515;SDS011;11424;48.860;9.624;2023-11-21T22:27:56;59.4;;;65.4;;
22515;SDS011;11424;48.860;9.624;2023-11-21T22:32:56;61.3;;;67.3;;
22515;SDS011;11424;48.860;9.624;2023-11-21T22:37:56;63.7;;;70.4;;
22515;SDS011;11424;48.860;9.624;2023-11-21T22:42:56;61;;;67;;
22515;SDS011;11424;48.860;9.624;2023-11-21T22:47:56;53.9;;;58.2;;
22515;SDS011;11424;48.860;9.624;2023-11-21T22:52:56;54.8;;;59.5;;
22515;SDS011;11424;48.860;9.624;2023-11-21T22:57:56;62.8;;;69.3;;
22515;SDS011;11424;48.860;9.624;2023-11-21T23:02:56;62.7;;;69;;
22515;SDS011;11424;48.860;9.624;2023-11-21T23:07:56;63.7;;;70.3;;
22515;SDS011;11424;48.860;9.624;2023-11-21T23:12:56;62;;;68.3;;
22515;SDS011;11424;48.860;9.624;2023-11-21T23:17:56;62.2;;;68.5;;
22515;SDS011;11424;48.860;9.624;2023-11-21T23:22:56;63.6;;;70.1;;
22515;SDS011;11424;48.860;9.624;2023-11-21T23:27:56;56.3;;;60.8;;
22515;SDS011;11424;48.860;9.624;2023-11-21T23:32:56;57.4;;;62.2;;
22515;SDS011;11424;48.860;9.624;2023-11-21T23:37:56;64.4;;;70.9;;
22515;SDS011;11424;48.860;9.624;2023-11-21T23:42:56;66;;;72.8;;
22515;SDS011;11424;48.860;9.624;2023-11-21T23:47:56;70.1;;;77.4;;
22515;SDS011;11424;48.860;9.624;2023-11-21T23:52:56;71.8;;;79.2;;
22515;SDS011;11424;48.860;9.624;2023-11-21T23:57:56;69;;;76.3;;
